Flight Track Log - Related Links

Times and Time Zones

All times are in EDT time to prevent confusion due to time zone crossing. See the KAP528 flight status page for this flight to view local times or setup timezone preferences in your user account.

Time Position Orientation Groundspeed Altitude Reporting Facility
EDT Latitude Longitude Course Direction KTS MPH feet Rate Location/Type
Sun 06:06:17 PM 41.6558 -70.8647 100° East 138 159 2,200  Level Boston Center
Sun 06:08:00 PM 41.7148 -70.8167 31° Northeast  Level FlightAware Approximate
Sun 06:15:00 PM 41.5376 -70.5241 79° East  Level Estimated
Sun 06:16:00 PM 41.5122 -70.4824 156° South  Level Estimated
Sun 06:17:00 PM 41.5047 -70.4297 101° East  Level FlightAware Approximate
Sun 06:18:00 PM 41.4971 -70.3770 101° East  Level FlightAware Approximate
Sun 06:19:00 PM 41.4895 -70.3242 101° East  Level FlightAware Approximate
Sun 06:20:00 PM 41.4819 -70.2715 101° East  Level FlightAware Approximate
Sun 06:21:00 PM 41.4743 -70.2188 101° East  Level FlightAware Approximate
Sun 06:22:00 PM 41.4666 -70.1662 101° East  Level FlightAware Approximate
Sun 06:23:00 PM 41.4745 -70.2188 281° West  Level FlightAware Approximate
Sun 06:24:00 PM 41.4666 -70.1662 101° East  Level FlightAware Approximate
Sun 06:25:00 PM 41.4745 -70.2188 281° West  Level FlightAware Approximate
Sun 06:26:00 PM 41.4666 -70.1662 101° East  Level FlightAware Approximate
Sun 06:27:00 PM 41.4540 -70.1667 180° South  Level FlightAware Approximate
Sun 06:28:00 PM 41.4154 -70.1564 157° South  Level FlightAware Approximate
Sun 06:29:00 PM 41.3784 -70.1352 157° South  Level FlightAware Approximate
Sun 06:30:00 PM 41.3414 -70.1141 157° South  Level FlightAware Approximate
Sun 06:31:00 PM 41.3051 -70.0913 151° Southeast  Level FlightAware Approximate
Sun 06:32:00 PM 41.2701 -70.0650 151° Southeast  Level FlightAware Approximate
Sun 06:33:00 PM 41.2500 -70.0500 151° Southeast  Level FlightAware Approximate
Sun 06:34:00 PM 41.2531 -70.0603 151° Southeast  Level Estimated
Sun 06:35:00 PM 41.2531 -70.0603 151° Southeast  Level Estimated
Sun 06:36:00 PM 41.2531 -70.0603 151° Southeast  Level Estimated
Sun 06:37:00 PM 41.2531 -70.0603 151° Southeast  Level Estimated
Sun 06:38:00 PM 41.2531 -70.0603 151° Southeast  Level Estimated
Sun 06:39:00 PM 41.2531 -70.0603 151° Southeast  Level Estimated

Login

Don't have an account? Register now (free) for customized features, flight alerts, and more!